createdAt,value
2022-09-12T00:00:53.159Z,98593.52
2022-09-12T00:03:19.900Z,98588.58
2022-09-12T00:05:47.327Z,98587.79
2022-09-12T00:08:14.283Z,98584.55
2022-09-12T00:10:41.675Z,98576.88
2022-09-12T00:13:08.671Z,98572.21
2022-09-12T00:15:42.401Z,98573.90
2022-09-12T00:18:09.832Z,98571.16
2022-09-12T00:20:36.541Z,98571.11
2022-09-12T00:23:03.291Z,98569.45
2022-09-12T00:25:31.281Z,98569.44
2022-09-12T00:27:58.116Z,98570.13
2022-09-12T00:30:25.298Z,98567.98
2022-09-12T00:32:54.713Z,98568.04
2022-09-12T00:35:21.477Z,98564.09
2022-09-12T00:37:48.178Z,98562.60
2022-09-12T00:40:15.123Z,98558.90
2022-09-12T00:42:41.847Z,98564.09
2022-09-12T00:45:11.588Z,98558.11
2022-09-12T00:47:38.402Z,98559.45
2022-09-12T00:50:10.238Z,98557.52
2022-09-12T00:52:43.988Z,98558.28
2022-09-12T00:55:35.154Z,98557.73
2022-09-12T00:58:03.593Z,98555.54
2022-09-12T01:00:30.382Z,98555.25
2022-09-12T01:03:01.878Z,98556.58
2022-09-12T01:05:28.825Z,98555.20
2022-09-12T01:07:56.561Z,98553.94
2022-09-12T01:10:23.382Z,98557.00
2022-09-12T01:12:50.120Z,98559.13
2022-09-12T01:15:17.008Z,98554.48
2022-09-12T01:18:21.326Z,98552.41
2022-09-12T01:21:01.365Z,98551.25
2022-09-12T01:23:58.422Z,98550.33
2022-09-12T01:26:43.962Z,98553.86
2022-09-12T01:29:32.473Z,98556.39
2022-09-12T01:32:36.705Z,98558.17
2022-09-12T01:35:16.749Z,98562.48
2022-09-12T01:37:54.534Z,98561.44
2022-09-12T01:40:30.581Z,98556.61
2022-09-12T01:43:11.554Z,98558.27
2022-09-12T01:45:45.813Z,98555.73
2022-09-12T01:48:20.436Z,98553.86
2022-09-12T01:50:52.606Z,98556.62
2022-09-12T01:53:27.837Z,98552.73
2022-09-12T01:56:04.104Z,98553.23
2022-09-12T01:58:36.553Z,98546.96
2022-09-12T02:01:07.944Z,98543.88
2022-09-12T02:03:39.701Z,98540.61
2022-09-12T02:06:31.654Z,98545.90
2022-09-12T02:09:01.691Z,98543.90
2022-09-12T02:11:28.421Z,98542.61
2022-09-12T02:14:03.915Z,98539.77
2022-09-12T02:16:34.402Z,98540.16
2022-09-12T02:19:05.732Z,98539.35
2022-09-12T02:21:33.095Z,98541.33
2022-09-12T02:24:01.420Z,98539.20
2022-09-12T02:26:53.047Z,98542.21
2022-09-12T02:29:19.780Z,98541.75
2022-09-12T02:31:59.960Z,98543.94
2022-09-12T02:34:39.889Z,98545.24
2022-09-12T02:37:17.365Z,98547.69
2022-09-12T02:39:45.478Z,98543.52
2022-09-12T02:42:12.675Z,98542.96
2022-09-12T02:44:39.395Z,98545.52
2022-09-12T02:47:10.659Z,98546.50
2022-09-12T02:49:37.426Z,98545.45
2022-09-12T02:52:04.315Z,98546.52
2022-09-12T02:54:31.042Z,98547.58
2022-09-12T02:56:57.747Z,98549.56
2022-09-12T02:59:24.472Z,98547.49
2022-09-12T03:02:28.229Z,98547.30
2022-09-12T03:05:16.804Z,98550.98
2022-09-12T03:07:52.576Z,98550.52
2022-09-12T03:10:31.022Z,98550.83
2022-09-12T03:13:26.849Z,98548.90
2022-09-12T03:15:59.310Z,98548.46
2022-09-12T03:18:32.327Z,98546.88
2022-09-12T03:21:07.358Z,98544.75
2022-09-12T03:23:54.217Z,98545.11
2022-09-12T03:26:26.010Z,98544.98
2022-09-12T03:28:53.160Z,98541.73
2022-09-12T03:31:19.958Z,98543.23
2022-09-12T03:33:46.647Z,98543.34
2022-09-12T03:36:25.307Z,98546.40
2022-09-12T03:38:52.092Z,98545.77
2022-09-12T03:41:18.977Z,98547.35
2022-09-12T03:43:45.838Z,98548.02
2022-09-12T03:46:13.633Z,98553.86
2022-09-12T03:48:41.153Z,98554.15
2022-09-12T03:51:09.510Z,98565.17
2022-09-12T03:53:36.297Z,98565.23
2022-09-12T03:56:10.209Z,98564.93
2022-09-12T03:58:36.981Z,98570.92
2022-09-12T04:01:12.245Z,98574.60
2022-09-12T04:03:42.984Z,98574.10
2022-09-12T04:06:10.963Z,98580.85
2022-09-12T04:08:37.864Z,98583.94
2022-09-12T04:11:14.595Z,98583.66
2022-09-12T04:13:42.519Z,98590.27
2022-09-12T04:16:09.445Z,98589.15
2022-09-12T04:18:36.213Z,98588.46
2022-09-12T04:21:17.059Z,98588.15
2022-09-12T04:23:43.988Z,98588.97
2022-09-12T04:26:11.044Z,98594.54
2022-09-12T04:28:38.283Z,98598.79
2022-09-12T04:31:17.689Z,98594.27
2022-09-12T04:33:45.075Z,98595.05
2022-09-12T04:36:14.905Z,98595.71
2022-09-12T04:38:41.657Z,98595.54
2022-09-12T04:41:22.109Z,98600.98
2022-09-12T04:43:52.256Z,98604.91
2022-09-12T04:46:20.402Z,98607.81
2022-09-12T04:48:47.850Z,98605.75
2022-09-12T04:51:22.652Z,98609.85
2022-09-12T04:53:50.840Z,98611.94
2022-09-12T04:56:17.778Z,98611.58
2022-09-12T04:58:44.788Z,98617.32
2022-09-12T05:01:12.306Z,98616.78
2022-09-12T05:03:39.697Z,98615.36
2022-09-12T05:06:07.648Z,98613.88
2022-09-12T05:08:35.559Z,98615.77
2022-09-12T05:11:05.071Z,98614.68
2022-09-12T05:13:32.006Z,98611.02
2022-09-12T05:15:59.714Z,98609.59
2022-09-12T05:18:26.724Z,98610.84
2022-09-12T05:20:53.982Z,98609.90
2022-09-12T05:23:21.234Z,98609.13
2022-09-12T05:25:52.467Z,98608.46
2022-09-12T05:28:19.702Z,98612.67
2022-09-12T05:30:46.750Z,98611.99
2022-09-12T05:33:14.212Z,98611.27
2022-09-12T05:35:41.141Z,98609.63
2022-09-12T05:38:07.998Z,98605.97
2022-09-12T05:40:34.904Z,98608.33
2022-09-12T05:43:01.629Z,98606.69
2022-09-12T05:45:28.420Z,98607.73
2022-09-12T05:47:55.197Z,98604.59
2022-09-12T05:50:21.932Z,98603.34
2022-09-12T05:52:48.703Z,98604.85
2022-09-12T05:55:16.643Z,98605.52
2022-09-12T05:57:46.439Z,98604.63
2022-09-12T06:00:14.968Z,98607.24
2022-09-12T06:02:42.582Z,98605.65
2022-09-12T06:05:09.493Z,98605.43
2022-09-12T06:07:36.266Z,98609.67
2022-09-12T06:10:06.094Z,98609.19
2022-09-12T06:12:32.856Z,98609.52
2022-09-12T06:14:59.860Z,98608.44
2022-09-12T06:17:26.593Z,98606.30
2022-09-12T06:19:53.613Z,98604.59
2022-09-12T06:22:21.056Z,98608.52
2022-09-12T06:24:47.787Z,98611.31
2022-09-12T06:27:14.533Z,98611.60
2022-09-12T06:29:41.323Z,98611.92
2022-09-12T06:32:08.083Z,98615.10
2022-09-12T06:34:36.500Z,98609.66
2022-09-12T06:37:04.036Z,98610.79
2022-09-12T06:39:31.719Z,98611.77
2022-09-12T06:41:58.397Z,98614.07
2022-09-12T06:44:33.234Z,98618.27
2022-09-12T06:46:59.959Z,98617.03
2022-09-12T06:49:26.779Z,98617.93
2022-09-12T06:51:53.483Z,98622.18
2022-09-12T06:54:20.193Z,98620.70
2022-09-12T06:56:46.998Z,98624.09
2022-09-12T06:59:13.952Z,98624.07
2022-09-12T07:01:41.748Z,98623.17
2022-09-12T07:04:08.764Z,98624.05
2022-09-12T07:06:40.659Z,98626.98
2022-09-12T07:09:08.926Z,98623.51
2022-09-12T07:11:36.730Z,98627.64
2022-09-12T07:16:47.355Z,98627.73
2022-09-12T07:19:14.158Z,98627.23
2022-09-12T07:21:41.508Z,98625.52
2022-09-12T07:24:09.750Z,98622.98
2022-09-12T07:26:36.666Z,98620.67
2022-09-12T07:29:32.236Z,98617.80
2022-09-12T07:31:50.394Z,98616.05
2022-09-12T07:34:17.639Z,98619.22
2022-09-12T07:36:44.375Z,98620.80
2022-09-12T07:39:11.171Z,98625.60
2022-09-12T07:41:38.034Z,98616.56
2022-09-12T07:44:06.720Z,98622.45
2022-09-12T07:46:33.567Z,98618.04
2022-09-12T07:49:00.813Z,98619.39
2022-09-12T07:51:28.603Z,98619.73
2022-09-12T07:53:56.547Z,98621.75
2022-09-12T07:56:28.810Z,98621.73
2022-09-12T07:58:56.994Z,98624.05
2022-09-12T08:01:23.909Z,98622.10
2022-09-12T08:03:55.342Z,98622.46
2022-09-12T08:06:24.228Z,98621.56
2022-09-12T08:08:51.770Z,98621.41
2022-09-12T08:11:20.170Z,98623.08
2022-09-12T08:13:49.648Z,98622.17
2022-09-12T08:16:21.463Z,98625.25
2022-09-12T08:18:48.672Z,98622.55
2022-09-12T08:21:20.212Z,98618.30
2022-09-12T08:23:47.300Z,98617.58
2022-09-12T08:26:14.122Z,98612.36
2022-09-12T08:28:45.661Z,98615.33
2022-09-12T08:31:16.713Z,98613.09
2022-09-12T08:33:43.502Z,98614.08
2022-09-12T08:36:15.047Z,98608.15
2022-09-12T08:38:43.011Z,98612.64
2022-09-12T08:41:17.841Z,98612.66
2022-09-12T08:44:25.285Z,98612.77
2022-09-12T08:46:57.279Z,98610.46
2022-09-12T08:49:28.997Z,98611.27
2022-09-12T08:51:55.894Z,98610.98
2022-09-12T08:54:27.499Z,98605.02
2022-09-12T08:57:01.465Z,98606.06
2022-09-12T08:59:36.116Z,98605.61
2022-09-12T09:02:04.483Z,98603.80
2022-09-12T09:04:51.581Z,98605.92
2022-09-12T09:07:52.777Z,98604.23
2022-09-12T09:10:31.607Z,98603.83
2022-09-12T09:12:58.281Z,98606.04
2022-09-12T09:15:37.710Z,98609.13
2022-09-12T09:18:24.169Z,98611.77
2022-09-12T09:20:53.961Z,98614.77
2022-09-12T09:23:28.502Z,98610.95
2022-09-12T09:26:10.612Z,98612.66
2022-09-12T09:28:47.143Z,98613.74
2022-09-12T09:31:22.427Z,98615.07
2022-09-12T09:33:51.347Z,98614.02
2022-09-12T09:36:22.970Z,98619.40
2022-09-12T09:38:51.266Z,98621.03
2022-09-12T09:41:42.159Z,98622.20
2022-09-12T09:44:08.863Z,98623.35
2022-09-12T09:46:35.663Z,98622.27
2022-09-12T09:49:05.629Z,98627.34
2022-09-12T09:51:39.644Z,98623.88
2022-09-12T09:54:19.889Z,98626.23
2022-09-12T09:56:48.741Z,98625.54
2022-09-12T09:59:16.498Z,98626.79
2022-09-12T10:01:46.424Z,98626.34
2022-09-12T10:04:24.651Z,98628.17
2022-09-12T10:06:59.687Z,98627.17
2022-09-12T10:09:27.923Z,98632.47
2022-09-12T10:11:55.658Z,98632.00
2022-09-12T10:14:37.759Z,98633.92
2022-09-12T10:17:22.860Z,98637.05
2022-09-12T10:20:04.568Z,98642.75
2022-09-12T10:22:36.620Z,98642.70
2022-09-12T10:25:04.021Z,98644.33
2022-09-12T10:27:33.809Z,98645.35
2022-09-12T10:30:17.831Z,98644.98
2022-09-12T10:32:50.880Z,98643.15
2022-09-12T10:35:19.454Z,98645.14
2022-09-12T10:37:58.947Z,98644.73
2022-09-12T10:40:32.619Z,98644.95
2022-09-12T10:42:59.730Z,98649.73
2022-09-12T10:45:31.993Z,98651.23
2022-09-12T10:48:07.293Z,98650.54
2022-09-12T10:50:41.504Z,98655.57
2022-09-12T10:53:14.397Z,98656.05
2022-09-12T10:55:43.145Z,98661.94
2022-09-12T10:58:53.727Z,98665.20
2022-09-12T11:01:28.149Z,98667.41
2022-09-12T11:04:13.667Z,98668.46
2022-09-12T11:06:47.983Z,98666.20
2022-09-12T11:09:17.422Z,98663.88
2022-09-12T11:11:50.625Z,98663.08
2022-09-12T11:14:31.715Z,98665.31
2022-09-12T11:16:58.628Z,98663.05
2022-09-12T11:19:38.439Z,98667.02
2022-09-12T11:22:31.066Z,98667.61
2022-09-12T11:25:12.391Z,98671.14
2022-09-12T11:27:42.027Z,98666.69
2022-09-12T11:30:11.160Z,98667.06
2022-09-12T11:32:53.528Z,98665.46
2022-09-12T11:35:27.733Z,98661.86
2022-09-12T11:38:28.526Z,98662.25
2022-09-12T11:40:59.605Z,98663.52
2022-09-12T11:43:44.508Z,98662.30
2022-09-12T11:46:19.036Z,98663.26
2022-09-12T11:48:54.795Z,98668.16
2022-09-12T11:51:55.450Z,98668.66
2022-09-12T11:54:59.223Z,98668.80
2022-09-12T11:57:28.987Z,98667.85
2022-09-12T12:00:22.032Z,98669.58
2022-09-12T12:03:06.576Z,98676.09
2022-09-12T12:05:44.310Z,98674.04
2022-09-12T12:08:11.427Z,98675.77
2022-09-12T12:10:39.595Z,98671.25
2022-09-12T12:13:27.914Z,98668.34
2022-09-12T12:16:07.203Z,98671.80
2022-09-12T12:18:36.610Z,98673.03
2022-09-12T12:21:37.362Z,98669.87
2022-09-12T12:24:09.856Z,98677.16
2022-09-12T12:26:39.764Z,98681.44
2022-09-12T12:29:18.528Z,98678.03
2022-09-12T12:32:01.969Z,98677.23
2022-09-12T12:34:40.012Z,98674.73
2022-09-12T12:37:29.947Z,98673.20
2022-09-12T12:40:05.663Z,98677.75
2022-09-12T12:42:32.535Z,98676.77
2022-09-12T12:45:04.123Z,98675.77
2022-09-12T12:47:34.229Z,98677.38
2022-09-12T12:50:16.108Z,98677.32
2022-09-12T12:52:54.101Z,98678.75
2022-09-12T12:55:26.466Z,98676.47
2022-09-12T12:57:56.765Z,98676.91
2022-09-12T13:00:28.181Z,98677.68
2022-09-12T13:03:04.403Z,98677.90
2022-09-12T13:05:47.625Z,98677.56
2022-09-12T13:08:17.371Z,98675.76
2022-09-12T13:11:17.230Z,98679.10
2022-09-12T13:13:52.965Z,98680.41
2022-09-12T13:16:53.348Z,98678.09
2022-09-12T13:19:30.486Z,98679.24
2022-09-12T13:22:00.673Z,98683.84
2022-09-12T13:24:27.577Z,98684.80
2022-09-12T13:26:54.397Z,98684.06
2022-09-12T13:29:22.942Z,98684.67
2022-09-12T13:31:52.708Z,98683.31
2022-09-12T13:34:21.439Z,98686.84
2022-09-12T13:37:12.660Z,98683.36
2022-09-12T13:39:55.599Z,98686.60
2022-09-12T13:42:48.696Z,98687.89
2022-09-12T13:45:27.543Z,98688.71
2022-09-12T13:48:04.643Z,98687.86
2022-09-12T13:50:32.314Z,98689.31
2022-09-12T13:53:00.718Z,98690.25
2022-09-12T13:55:31.827Z,98694.05
2022-09-12T13:58:03.666Z,98690.99
2022-09-12T14:00:32.385Z,98692.09
2022-09-12T14:03:18.234Z,98695.15
2022-09-12T14:05:46.580Z,98689.98
2022-09-12T14:08:14.465Z,98692.17
2022-09-12T14:10:45.271Z,98691.29
2022-09-12T14:13:24.255Z,98693.43
2022-09-12T14:15:55.020Z,98689.21
2022-09-12T14:18:27.051Z,98691.02
2022-09-12T14:21:00.610Z,98688.08
2022-09-12T14:23:32.163Z,98692.83
2022-09-12T14:26:02.600Z,98692.29
2022-09-12T14:28:30.215Z,98694.71
2022-09-12T14:31:19.066Z,98694.40
2022-09-12T14:33:50.829Z,98695.48
2022-09-12T14:36:27.322Z,98692.68
2022-09-12T14:39:05.837Z,98691.71
2022-09-12T14:41:34.644Z,98690.80
2022-09-12T14:44:03.712Z,98693.63
2022-09-12T14:46:31.350Z,98690.84
2022-09-12T14:49:23.996Z,98695.08
2022-09-12T14:51:51.433Z,98693.05
2022-09-12T14:54:27.495Z,98692.94
2022-09-12T14:56:56.024Z,98699.51
2022-09-12T14:59:34.891Z,98696.95
2022-09-12T15:02:13.794Z,98700.63
2022-09-12T15:04:41.257Z,98698.46
2022-09-12T15:07:38.407Z,98701.23
2022-09-12T15:10:05.463Z,98706.47
2022-09-12T15:12:32.288Z,98702.45
2022-09-12T15:15:25.272Z,98705.80
2022-09-12T15:17:52.000Z,98706.19
2022-09-12T15:20:18.756Z,98709.70
2022-09-12T15:22:45.485Z,98710.02
2022-09-12T15:25:13.005Z,98709.63
2022-09-12T15:27:41.005Z,98709.02
2022-09-12T15:30:12.155Z,98710.50
2022-09-12T15:32:39.540Z,98709.89
2022-09-12T15:35:25.602Z,98712.08
2022-09-12T15:37:52.430Z,98713.05
2022-09-12T15:40:19.367Z,98707.79
2022-09-12T15:42:46.343Z,98710.08
2022-09-12T15:45:20.229Z,98713.86
2022-09-12T15:47:46.976Z,98714.15
2022-09-12T15:50:13.731Z,98714.16
2022-09-12T15:52:41.425Z,98713.39
2022-09-12T15:55:19.380Z,98715.02
2022-09-12T15:57:46.352Z,98715.02
2022-09-12T16:00:14.211Z,98717.48
2022-09-12T16:02:41.048Z,98713.39
2022-09-12T16:05:13.075Z,98717.29
2022-09-12T16:07:39.764Z,98720.95
2022-09-12T16:10:06.885Z,98724.50
2022-09-12T16:12:33.585Z,98723.63
2022-09-12T16:15:00.297Z,98726.33
2022-09-12T16:17:26.977Z,98722.96
2022-09-12T16:19:53.810Z,98722.44
2022-09-12T16:22:20.499Z,98726.23
2022-09-12T16:24:47.186Z,98724.75
2022-09-12T16:27:14.073Z,98726.56
2022-09-12T16:29:41.078Z,98729.62
2022-09-12T16:32:07.792Z,98726.96
2022-09-12T16:34:34.611Z,98730.10
2022-09-12T16:37:02.015Z,98732.52
2022-09-12T16:39:28.748Z,98730.83
2022-09-12T16:41:55.545Z,98731.04
2022-09-12T16:44:22.281Z,98727.94
2022-09-12T16:46:50.205Z,98731.70
2022-09-12T16:49:16.964Z,98732.89
2022-09-12T16:51:47.442Z,98730.66
2022-09-12T16:54:15.689Z,98729.75
2022-09-12T16:56:42.460Z,98733.01
2022-09-12T16:59:12.209Z,98737.96
2022-09-12T17:01:38.991Z,98738.84
2022-09-12T17:04:06.780Z,98738.99
2022-09-12T17:06:34.038Z,98738.20
2022-09-12T17:09:01.048Z,98737.43
2022-09-12T17:11:30.993Z,98737.22
2022-09-12T17:14:06.647Z,98738.63
2022-09-12T17:16:35.277Z,98736.95
2022-09-12T17:19:02.303Z,98736.86
2022-09-12T17:21:29.238Z,98735.55
2022-09-12T17:23:56.172Z,98738.30
2022-09-12T17:26:22.988Z,98738.27
2022-09-12T17:28:49.896Z,98739.67
2022-09-12T17:31:17.270Z,98737.84
2022-09-12T17:33:44.228Z,98735.00
2022-09-12T17:36:16.436Z,98736.91
2022-09-12T17:38:44.525Z,98739.77
2022-09-12T17:41:15.320Z,98739.95
2022-09-12T17:43:42.346Z,98739.95
2022-09-12T17:46:09.551Z,98738.43
2022-09-12T17:48:36.413Z,98742.86
2022-09-12T17:51:10.029Z,98744.67
2022-09-12T17:53:36.911Z,98742.31
2022-09-12T17:56:04.694Z,98742.88
2022-09-12T17:58:32.381Z,98740.77
2022-09-12T18:01:33.759Z,98735.70
2022-09-12T18:04:01.198Z,98733.36
2022-09-12T18:06:28.877Z,98730.80
2022-09-12T18:08:56.139Z,98730.20
2022-09-12T18:11:23.002Z,98733.09
2022-09-12T18:13:50.690Z,98731.67
2022-09-12T18:16:18.232Z,98732.16
2022-09-12T18:18:45.209Z,98730.67
2022-09-12T18:21:12.264Z,98732.03
2022-09-12T18:23:39.221Z,98731.52
2022-09-12T18:26:07.520Z,98729.29
2022-09-12T18:28:39.002Z,98731.81
2022-09-12T18:31:10.024Z,98732.52
2022-09-12T18:33:37.872Z,98730.10
2022-09-12T18:36:05.848Z,98730.96
2022-09-12T18:38:32.859Z,98733.21
2022-09-12T18:41:06.992Z,98737.64
2022-09-12T18:43:34.024Z,98733.27
2022-09-12T18:46:04.795Z,98737.41
2022-09-12T18:48:32.617Z,98736.80
2022-09-12T18:51:12.558Z,98733.91
2022-09-12T18:53:39.509Z,98733.95
2022-09-12T18:56:12.236Z,98737.96
2022-09-12T18:58:43.529Z,98737.08
2022-09-12T19:01:15.369Z,98738.11
2022-09-12T19:03:42.449Z,98737.58
2022-09-12T19:06:19.871Z,98735.33
2022-09-12T19:08:47.259Z,98732.70
2022-09-12T19:11:14.223Z,98731.18
2022-09-12T19:13:42.326Z,98731.29
2022-09-12T19:16:11.777Z,98734.41
2022-09-12T19:18:38.973Z,98735.49
2022-09-12T19:21:06.633Z,98738.22
2022-09-12T19:23:34.402Z,98734.47
2022-09-12T19:26:08.633Z,98735.16
2022-09-12T19:28:35.606Z,98731.90
2022-09-12T19:33:50.612Z,98725.86
2022-09-12T19:36:43.387Z,98721.48
2022-09-12T19:39:06.230Z,98720.11
2022-09-12T19:41:33.061Z,98717.77
2022-09-12T19:44:00.015Z,98717.49
2022-09-12T19:46:27.211Z,98717.45
2022-09-12T19:48:54.104Z,98716.04
2022-09-12T19:51:21.723Z,98717.67
2022-09-12T19:53:50.270Z,98714.89
2022-09-12T19:56:17.086Z,98713.04
2022-09-12T19:58:45.486Z,98713.54
2022-09-12T20:01:13.361Z,98713.16
2022-09-12T20:03:40.319Z,98715.20
2022-09-12T20:06:09.389Z,98708.38
2022-09-12T20:08:37.341Z,98709.52
2022-09-12T20:11:04.402Z,98713.08
2022-09-12T20:13:31.209Z,98711.92
2022-09-12T20:16:20.408Z,98706.30
2022-09-12T20:18:49.501Z,98707.48
2022-09-12T20:21:17.845Z,98706.80
2022-09-12T20:23:45.049Z,98708.47
2022-09-12T20:26:12.082Z,98706.31
2022-09-12T20:28:39.050Z,98706.56
2022-09-12T20:31:07.599Z,98704.54
2022-09-12T20:33:34.386Z,98707.52
2022-09-12T20:36:09.411Z,98703.08
2022-09-12T20:38:36.424Z,98707.94
2022-09-12T20:41:04.672Z,98704.77
2022-09-12T20:43:31.480Z,98703.41
2022-09-12T20:45:58.282Z,98695.61
2022-09-12T20:48:25.279Z,98695.55
2022-09-12T20:50:51.983Z,98704.78
2022-09-12T20:53:18.785Z,98706.31
2022-09-12T20:55:52.094Z,98707.91
2022-09-12T20:58:19.650Z,98705.57
2022-09-12T21:00:46.892Z,98706.78
2022-09-12T21:03:14.348Z,98707.99
2022-09-12T21:05:45.855Z,98704.45
2022-09-12T21:08:12.805Z,98707.23
2022-09-12T21:10:41.144Z,98704.18
2022-09-12T21:13:11.610Z,98707.02
2022-09-12T21:15:38.887Z,98706.67
2022-09-12T21:18:05.751Z,98706.23
2022-09-12T21:20:32.650Z,98707.00
2022-09-12T21:22:59.618Z,98702.05
2022-09-12T21:25:26.370Z,98703.79
2022-09-12T21:27:53.048Z,98705.06
2022-09-12T21:30:19.810Z,98704.05
2022-09-12T21:32:46.483Z,98706.69
2022-09-12T21:35:13.637Z,98706.99
2022-09-12T21:37:40.370Z,98702.77
2022-09-12T21:40:07.127Z,98702.78
2022-09-12T21:42:33.961Z,98699.37
2022-09-12T21:45:00.607Z,98699.95
2022-09-12T21:47:27.376Z,98694.25
2022-09-12T21:49:55.295Z,98696.45
2022-09-12T21:52:22.104Z,98694.31
2022-09-12T21:54:48.778Z,98693.35
2022-09-12T21:57:15.709Z,98692.70
2022-09-12T21:59:42.573Z,98685.23
2022-09-12T22:02:10.821Z,98681.56
2022-09-12T22:04:37.590Z,98680.95
2022-09-12T22:07:05.434Z,98680.37
2022-09-12T22:09:32.900Z,98681.28
2022-09-12T22:11:59.988Z,98685.14
2022-09-12T22:14:26.724Z,98684.71
2022-09-12T22:16:53.388Z,98687.70
2022-09-12T22:19:20.326Z,98685.52
2022-09-12T22:22:05.643Z,98681.38
2022-09-12T22:24:32.425Z,98681.70
2022-09-12T22:27:02.040Z,98682.52
2022-09-12T22:29:28.752Z,98681.70
2022-09-12T22:31:55.571Z,98681.05
2022-09-12T22:34:22.334Z,98680.91
2022-09-12T22:36:49.011Z,98677.47
2022-09-12T22:39:15.848Z,98679.48
2022-09-12T22:41:42.573Z,98682.87
2022-09-12T22:44:10.133Z,98680.25
2022-09-12T22:46:37.977Z,98680.74
2022-09-12T22:49:07.912Z,98682.56
2022-09-12T22:51:34.699Z,98684.08
2022-09-12T22:54:01.709Z,98683.30
2022-09-12T22:56:28.522Z,98681.19
2022-09-12T22:58:55.297Z,98681.09
2022-09-12T23:01:22.083Z,98680.52
2022-09-12T23:03:48.974Z,98677.85
2022-09-12T23:06:15.834Z,98676.77
2022-09-12T23:08:42.519Z,98674.10
2022-09-12T23:11:13.429Z,98675.52
2022-09-12T23:13:42.415Z,98672.19
2022-09-12T23:16:12.892Z,98672.30
2022-09-12T23:18:39.707Z,98670.51
2022-09-12T23:21:07.462Z,98671.54
2022-09-12T23:23:34.282Z,98670.99
2022-09-12T23:26:05.301Z,98667.61
2022-09-12T23:28:32.069Z,98664.66
2022-09-12T23:31:00.278Z,98664.39
2022-09-12T23:33:28.474Z,98663.22
2022-09-12T23:36:08.909Z,98663.09
2022-09-12T23:38:35.694Z,98662.48
2022-09-12T23:41:03.347Z,98666.01
2022-09-12T23:43:30.143Z,98662.46
2022-09-12T23:45:57.678Z,98661.16
2022-09-12T23:48:24.576Z,98661.36
2022-09-12T23:50:51.733Z,98657.33
2022-09-12T23:53:18.839Z,98654.05
2022-09-12T23:55:45.546Z,98647.59
2022-09-12T23:58:12.213Z,98647.02
